sensor_id;sensor_type;location;lat;lon;timestamp;temperature;humidity
42905;DHT22;28550;51.228;4.528;2022-11-18T00:01:04;9.40;97.40
42905;DHT22;28550;51.228;4.528;2022-11-18T00:03:32;9.40;97.80
42905;DHT22;28550;51.228;4.528;2022-11-18T00:06:05;9.50;97.00
42905;DHT22;28550;51.228;4.528;2022-11-18T00:08:40;9.60;96.80
42905;DHT22;28550;51.228;4.528;2022-11-18T00:11:09;9.60;96.20
42905;DHT22;28550;51.228;4.528;2022-11-18T00:13:44;9.70;95.10
42905;DHT22;28550;51.228;4.528;2022-11-18T00:17:04;9.80;94.50
42905;DHT22;28550;51.228;4.528;2022-11-18T00:19:37;9.70;94.60
42905;DHT22;28550;51.228;4.528;2022-11-18T00:22:07;9.70;96.30
42905;DHT22;28550;51.228;4.528;2022-11-18T00:24:34;9.80;95.40
42905;DHT22;28550;51.228;4.528;2022-11-18T00:26:59;9.90;94.20
42905;DHT22;28550;51.228;4.528;2022-11-18T00:29:25;9.90;93.40
42905;DHT22;28550;51.228;4.528;2022-11-18T00:31:55;10.00;91.70
42905;DHT22;28550;51.228;4.528;2022-11-18T00:34:22;10.20;88.80
42905;DHT22;28550;51.228;4.528;2022-11-18T00:36:51;10.20;90.10
42905;DHT22;28550;51.228;4.528;2022-11-18T00:39:17;10.20;88.60
42905;DHT22;28550;51.228;4.528;2022-11-18T00:41:45;10.10;90.40
42905;DHT22;28550;51.228;4.528;2022-11-18T00:44:30;10.10;91.10
42905;DHT22;28550;51.228;4.528;2022-11-18T00:46:57;10.10;88.10
42905;DHT22;28550;51.228;4.528;2022-11-18T00:49:26;10.00;88.60
42905;DHT22;28550;51.228;4.528;2022-11-18T00:51:52;10.10;89.20
42905;DHT22;28550;51.228;4.528;2022-11-18T00:54:26;10.00;89.10
42905;DHT22;28550;51.228;4.528;2022-11-18T00:56:51;9.90;89.10
42905;DHT22;28550;51.228;4.528;2022-11-18T00:59:18;10.00;90.00
42905;DHT22;28550;51.228;4.528;2022-11-18T01:01:43;9.90;89.60
42905;DHT22;28550;51.228;4.528;2022-11-18T01:04:12;9.90;86.60
42905;DHT22;28550;51.228;4.528;2022-11-18T01:06:40;10.00;90.10
42905;DHT22;28550;51.228;4.528;2022-11-18T01:09:05;9.90;90.30
42905;DHT22;28550;51.228;4.528;2022-11-18T01:11:39;10.00;89.50
42905;DHT22;28550;51.228;4.528;2022-11-18T01:14:25;9.90;91.20
42905;DHT22;28550;51.228;4.528;2022-11-18T01:19:47;10.00;91.50
42905;DHT22;28550;51.228;4.528;2022-11-18T01:22:24;10.00;90.10
42905;DHT22;28550;51.228;4.528;2022-11-18T01:24:51;10.00;91.60
42905;DHT22;28550;51.228;4.528;2022-11-18T01:27:21;10.20;86.50
42905;DHT22;28550;51.228;4.528;2022-11-18T01:29:51;10.10;87.70
42905;DHT22;28550;51.228;4.528;2022-11-18T01:32:24;10.20;85.70
42905;DHT22;28550;51.228;4.528;2022-11-18T01:34:53;10.10;87.30
42905;DHT22;28550;51.228;4.528;2022-11-18T01:37:20;10.00;89.50
42905;DHT22;28550;51.228;4.528;2022-11-18T01:39:50;10.00;90.60
42905;DHT22;28550;51.228;4.528;2022-11-18T01:42:16;9.90;90.00
42905;DHT22;28550;51.228;4.528;2022-11-18T01:45:01;9.90;90.40
42905;DHT22;28550;51.228;4.528;2022-11-18T01:47:30;10.00;89.90
42905;DHT22;28550;51.228;4.528;2022-11-18T01:52:26;9.80;90.20
42905;DHT22;28550;51.228;4.528;2022-11-18T01:54:56;9.80;90.10
42905;DHT22;28550;51.228;4.528;2022-11-18T01:57:26;9.70;91.10
42905;DHT22;28550;51.228;4.528;2022-11-18T01:59:54;9.60;91.50
42905;DHT22;28550;51.228;4.528;2022-11-18T02:02:20;9.60;92.40
42905;DHT22;28550;51.228;4.528;2022-11-18T02:04:51;9.60;92.00
42905;DHT22;28550;51.228;4.528;2022-11-18T02:07:18;9.60;91.50
42905;DHT22;28550;51.228;4.528;2022-11-18T02:09:45;9.40;92.50
42905;DHT22;28550;51.228;4.528;2022-11-18T02:12:15;9.30;94.90
42905;DHT22;28550;51.228;4.528;2022-11-18T02:14:43;9.30;94.50
42905;DHT22;28550;51.228;4.528;2022-11-18T02:17:31;9.20;94.70
42905;DHT22;28550;51.228;4.528;2022-11-18T02:22:40;9.10;94.50
42905;DHT22;28550;51.228;4.528;2022-11-18T02:25:30;9.00;96.00
42905;DHT22;28550;51.228;4.528;2022-11-18T02:30:43;8.70;96.40
42905;DHT22;28550;51.228;4.528;2022-11-18T02:33:18;8.80;96.40
42905;DHT22;28550;51.228;4.528;2022-11-18T02:41:38;8.70;97.70
42905;DHT22;28550;51.228;4.528;2022-11-18T02:44:16;8.70;97.10
42905;DHT22;28550;51.228;4.528;2022-11-18T02:46:52;8.60;97.60
42905;DHT22;28550;51.228;4.528;2022-11-18T02:49:25;8.50;97.20
42905;DHT22;28550;51.228;4.528;2022-11-18T02:51:54;8.50;97.70
42905;DHT22;28550;51.228;4.528;2022-11-18T02:54:26;8.50;98.00
42905;DHT22;28550;51.228;4.528;2022-11-18T02:56:59;8.40;97.20
42905;DHT22;28550;51.228;4.528;2022-11-18T02:59:26;8.40;98.00
42905;DHT22;28550;51.228;4.528;2022-11-18T03:01:55;8.50;97.70
42905;DHT22;28550;51.228;4.528;2022-11-18T03:04:28;8.40;97.50
42905;DHT22;28550;51.228;4.528;2022-11-18T03:07:17;8.40;98.10
42905;DHT22;28550;51.228;4.528;2022-11-18T03:09:43;8.30;97.70
42905;DHT22;28550;51.228;4.528;2022-11-18T03:17:59;8.20;98.70
42905;DHT22;28550;51.228;4.528;2022-11-18T03:20:34;8.20;98.70
42905;DHT22;28550;51.228;4.528;2022-11-18T03:23:05;8.20;98.50
42905;DHT22;28550;51.228;4.528;2022-11-18T03:31:11;8.00;99.90
42905;DHT22;28550;51.228;4.528;2022-11-18T03:33:39;8.20;99.90
42905;DHT22;28550;51.228;4.528;2022-11-18T03:36:10;8.20;98.70
42905;DHT22;28550;51.228;4.528;2022-11-18T03:38:43;8.20;98.70
42905;DHT22;28550;51.228;4.528;2022-11-18T03:41:27;8.10;99.10
42905;DHT22;28550;51.228;4.528;2022-11-18T03:43:59;8.20;99.60
42905;DHT22;28550;51.228;4.528;2022-11-18T03:46:31;8.20;99.60
42905;DHT22;28550;51.228;4.528;2022-11-18T03:49:01;8.00;99.60
42905;DHT22;28550;51.228;4.528;2022-11-18T03:51:41;7.90;99.90
42905;DHT22;28550;51.228;4.528;2022-11-18T03:54:10;8.00;99.90
42905;DHT22;28550;51.228;4.528;2022-11-18T03:56:39;7.90;99.80
42905;DHT22;28550;51.228;4.528;2022-11-18T04:02:12;7.90;99.90
42905;DHT22;28550;51.228;4.528;2022-11-18T04:04:43;7.90;99.90
42905;DHT22;28550;51.228;4.528;2022-11-18T04:09:55;8.00;99.90
42905;DHT22;28550;51.228;4.528;2022-11-18T04:12:22;8.00;99.30
42905;DHT22;28550;51.228;4.528;2022-11-18T04:14:58;8.10;99.90
42905;DHT22;28550;51.228;4.528;2022-11-18T04:17:25;8.00;99.90
42905;DHT22;28550;51.228;4.528;2022-11-18T04:19:52;8.00;99.90
42905;DHT22;28550;51.228;4.528;2022-11-18T04:22:23;7.90;99.90
42905;DHT22;28550;51.228;4.528;2022-11-18T04:24:55;7.90;99.90
42905;DHT22;28550;51.228;4.528;2022-11-18T04:27:30;8.00;99.90
42905;DHT22;28550;51.228;4.528;2022-11-18T04:30:05;8.00;99.90
42905;DHT22;28550;51.228;4.528;2022-11-18T04:32:32;8.00;99.90
42905;DHT22;28550;51.228;4.528;2022-11-18T04:34:57;8.00;99.90
42905;DHT22;28550;51.228;4.528;2022-11-18T04:37:23;8.10;99.90
42905;DHT22;28550;51.228;4.528;2022-11-18T04:39:52;8.10;99.90
42905;DHT22;28550;51.228;4.528;2022-11-18T04:42:38;8.10;99.90
42905;DHT22;28550;51.228;4.528;2022-11-18T04:45:12;8.00;99.90
42905;DHT22;28550;51.228;4.528;2022-11-18T04:47:40;8.00;99.90
42905;DHT22;28550;51.228;4.528;2022-11-18T04:50:07;8.00;99.90
42905;DHT22;28550;51.228;4.528;2022-11-18T04:52:37;8.00;99.90
42905;DHT22;28550;51.228;4.528;2022-11-18T04:55:06;8.10;99.90
42905;DHT22;28550;51.228;4.528;2022-11-18T04:57:38;8.10;99.90
42905;DHT22;28550;51.228;4.528;2022-11-18T05:00:04;8.10;99.90
42905;DHT22;28550;51.228;4.528;2022-11-18T05:02:33;8.20;99.90
42905;DHT22;28550;51.228;4.528;2022-11-18T05:05:12;8.20;99.90
42905;DHT22;28550;51.228;4.528;2022-11-18T05:07:55;8.20;99.90
42905;DHT22;28550;51.228;4.528;2022-11-18T05:10:32;8.20;99.90
42905;DHT22;28550;51.228;4.528;2022-11-18T05:15:28;8.20;99.90
42905;DHT22;28550;51.228;4.528;2022-11-18T05:17:56;8.10;99.90
42905;DHT22;28550;51.228;4.528;2022-11-18T05:20:22;8.10;99.90
42905;DHT22;28550;51.228;4.528;2022-11-18T05:22:47;8.00;99.70
42905;DHT22;28550;51.228;4.528;2022-11-18T05:25:13;8.10;99.40
42905;DHT22;28550;51.228;4.528;2022-11-18T05:27:42;8.00;99.70
42905;DHT22;28550;51.228;4.528;2022-11-18T05:32:41;8.10;99.90
42905;DHT22;28550;51.228;4.528;2022-11-18T05:35:07;8.10;99.90
42905;DHT22;28550;51.228;4.528;2022-11-18T05:37:34;8.00;99.90
42905;DHT22;28550;51.228;4.528;2022-11-18T05:40:00;8.00;99.90
42905;DHT22;28550;51.228;4.528;2022-11-18T05:42:34;8.00;99.90
42905;DHT22;28550;51.228;4.528;2022-11-18T05:45:18;8.00;99.90
42905;DHT22;28550;51.228;4.528;2022-11-18T05:47:51;7.90;99.90
42905;DHT22;28550;51.228;4.528;2022-11-18T05:50:25;7.90;99.90
42905;DHT22;28550;51.228;4.528;2022-11-18T05:52:58;7.90;99.90
42905;DHT22;28550;51.228;4.528;2022-11-18T05:55:25;8.00;99.90
42905;DHT22;28550;51.228;4.528;2022-11-18T05:57:58;8.10;99.90
42905;DHT22;28550;51.228;4.528;2022-11-18T06:00:33;8.10;99.90
42905;DHT22;28550;51.228;4.528;2022-11-18T06:05:47;7.90;99.90
42905;DHT22;28550;51.228;4.528;2022-11-18T06:08:23;7.90;99.90
42905;DHT22;28550;51.228;4.528;2022-11-18T06:10:53;7.90;99.90
42905;DHT22;28550;51.228;4.528;2022-11-18T06:13:24;7.90;99.90
42905;DHT22;28550;51.228;4.528;2022-11-18T06:15:51;7.90;99.90
42905;DHT22;28550;51.228;4.528;2022-11-18T06:18:24;7.90;99.90
42905;DHT22;28550;51.228;4.528;2022-11-18T06:20:59;7.90;99.90
42905;DHT22;28550;51.228;4.528;2022-11-18T06:23:33;8.00;99.90
42905;DHT22;28550;51.228;4.528;2022-11-18T06:26:01;8.00;99.90
42905;DHT22;28550;51.228;4.528;2022-11-18T06:28:28;8.00;99.90
42905;DHT22;28550;51.228;4.528;2022-11-18T06:31:03;8.00;99.90
42905;DHT22;28550;51.228;4.528;2022-11-18T06:36:36;8.00;99.90
42905;DHT22;28550;51.228;4.528;2022-11-18T06:39:18;8.10;99.90
42905;DHT22;28550;51.228;4.528;2022-11-18T06:44:31;7.80;99.90
42905;DHT22;28550;51.228;4.528;2022-11-18T06:46:57;7.90;99.90
42905;DHT22;28550;51.228;4.528;2022-11-18T06:49:26;7.80;99.90
42905;DHT22;28550;51.228;4.528;2022-11-18T14:30:22;10.80;99.90
42905;DHT22;28550;51.228;4.528;2022-11-18T14:33:20;10.70;99.90
42905;DHT22;28550;51.228;4.528;2022-11-18T14:36:16;10.80;99.90
42905;DHT22;28550;51.228;4.528;2022-11-18T14:42:11;10.80;99.90
42905;DHT22;28550;51.228;4.528;2022-11-18T14:47:51;10.70;99.90
42905;DHT22;28550;51.228;4.528;2022-11-18T14:59:02;10.60;99.90
42905;DHT22;28550;51.228;4.528;2022-11-18T15:01:51;10.70;99.90
42905;DHT22;28550;51.228;4.528;2022-11-18T15:07:36;10.70;99.90
42905;DHT22;28550;51.228;4.528;2022-11-18T15:14:33;10.80;99.90
42905;DHT22;28550;51.228;4.528;2022-11-18T15:23:32;10.70;99.90
42905;DHT22;28550;51.228;4.528;2022-11-18T15:29:22;10.70;99.90
42905;DHT22;28550;51.228;4.528;2022-11-18T15:32:17;10.80;99.90
42905;DHT22;28550;51.228;4.528;2022-11-18T15:34:47;10.70;99.90
42905;DHT22;28550;51.228;4.528;2022-11-18T15:40:51;10.80;99.90
42905;DHT22;28550;51.228;4.528;2022-11-18T15:43:38;10.80;99.90
42905;DHT22;28550;51.228;4.528;2022-11-18T15:46:41;10.70;99.90
42905;DHT22;28550;51.228;4.528;2022-11-18T15:49:17;10.70;99.90
42905;DHT22;28550;51.228;4.528;2022-11-18T15:55:16;10.70;99.90
42905;DHT22;28550;51.228;4.528;2022-11-18T15:57:55;10.70;99.90
42905;DHT22;28550;51.228;4.528;2022-11-18T16:00:22;10.70;99.90
42905;DHT22;28550;51.228;4.528;2022-11-18T16:03:23;10.80;99.90
42905;DHT22;28550;51.228;4.528;2022-11-18T16:06:03;10.70;99.90
42905;DHT22;28550;51.228;4.528;2022-11-18T16:08:51;10.70;99.90
42905;DHT22;28550;51.228;4.528;2022-11-18T16:11:29;10.70;99.90
42905;DHT22;28550;51.228;4.528;2022-11-18T16:14:36;10.80;99.90
42905;DHT22;28550;51.228;4.528;2022-11-18T16:17:05;10.70;99.90
42905;DHT22;28550;51.228;4.528;2022-11-18T16:22:50;10.60;99.90
42905;DHT22;28550;51.228;4.528;2022-11-18T16:32:35;10.60;99.90
42905;DHT22;28550;51.228;4.528;2022-11-18T16:38:34;10.60;99.90
42905;DHT22;28550;51.228;4.528;2022-11-18T16:41:15;10.60;99.90
42905;DHT22;28550;51.228;4.528;2022-11-18T16:50:11;10.50;99.90
42905;DHT22;28550;51.228;4.528;2022-11-18T16:52:59;10.50;99.90
42905;DHT22;28550;51.228;4.528;2022-11-18T16:55:35;10.50;99.90
42905;DHT22;28550;51.228;4.528;2022-11-18T16:58:15;10.40;99.90
42905;DHT22;28550;51.228;4.528;2022-11-18T17:00:55;10.50;99.90
42905;DHT22;28550;51.228;4.528;2022-11-18T17:03:32;10.50;99.90
42905;DHT22;28550;51.228;4.528;2022-11-18T17:06:07;10.50;99.90
42905;DHT22;28550;51.228;4.528;2022-11-18T17:14:36;10.60;99.90
42905;DHT22;28550;51.228;4.528;2022-11-18T17:19:53;10.70;99.90
42905;DHT22;28550;51.228;4.528;2022-11-18T17:22:26;10.80;99.90
42905;DHT22;28550;51.228;4.528;2022-11-18T17:25:01;10.60;99.90
42905;DHT22;28550;51.228;4.528;2022-11-18T17:27:36;10.60;99.90
42905;DHT22;28550;51.228;4.528;2022-11-18T17:33:02;10.50;99.90
42905;DHT22;28550;51.228;4.528;2022-11-18T17:35:35;10.60;99.90
42905;DHT22;28550;51.228;4.528;2022-11-18T17:38:15;10.50;99.90
42905;DHT22;28550;51.228;4.528;2022-11-18T17:40:43;10.50;99.90
42905;DHT22;28550;51.228;4.528;2022-11-18T17:43:19;10.50;99.90
42905;DHT22;28550;51.228;4.528;2022-11-18T17:45:56;10.50;99.90
42905;DHT22;28550;51.228;4.528;2022-11-18T17:49:09;10.60;99.90
42905;DHT22;28550;51.228;4.528;2022-11-18T17:51:40;10.50;99.90
42905;DHT22;28550;51.228;4.528;2022-11-18T17:54:23;10.60;99.90
42905;DHT22;28550;51.228;4.528;2022-11-18T17:57:12;10.60;99.90
42905;DHT22;28550;51.228;4.528;2022-11-18T18:08:08;10.60;99.90
42905;DHT22;28550;51.228;4.528;2022-11-18T18:10:38;10.60;99.90
42905;DHT22;28550;51.228;4.528;2022-11-18T18:13:19;10.50;99.90
42905;DHT22;28550;51.228;4.528;2022-11-18T18:16:15;10.50;99.90
42905;DHT22;28550;51.228;4.528;2022-11-18T18:32:08;10.40;99.90
42905;DHT22;28550;51.228;4.528;2022-11-18T18:34:45;10.50;99.90
42905;DHT22;28550;51.228;4.528;2022-11-18T18:37:21;10.50;99.90
42905;DHT22;28550;51.228;4.528;2022-11-18T19:34:29;10.60;99.90
42905;DHT22;28550;51.228;4.528;2022-11-18T19:47:03;10.60;99.90
42905;DHT22;28550;51.228;4.528;2022-11-18T20:07:43;10.70;99.90
42905;DHT22;28550;51.228;4.528;2022-11-18T20:10:28;10.70;99.90
42905;DHT22;28550;51.228;4.528;2022-11-18T20:13:12;10.70;99.90
42905;DHT22;28550;51.228;4.528;2022-11-18T20:15:42;10.60;99.90
42905;DHT22;28550;51.228;4.528;2022-11-18T20:26:40;10.60;99.90
42905;DHT22;28550;51.228;4.528;2022-11-18T21:01:28;10.50;99.90
42905;DHT22;28550;51.228;4.528;2022-11-18T21:07:08;10.60;99.90
42905;DHT22;28550;51.228;4.528;2022-11-18T21:15:28;10.50;99.90
42905;DHT22;28550;51.228;4.528;2022-11-18T21:26:37;10.50;99.90
42905;DHT22;28550;51.228;4.528;2022-11-18T21:29:11;10.60;99.90
42905;DHT22;28550;51.228;4.528;2022-11-18T21:31:48;10.60;99.90
42905;DHT22;28550;51.228;4.528;2022-11-18T21:34:18;10.50;99.90
42905;DHT22;28550;51.228;4.528;2022-11-18T21:36:54;10.50;99.90
42905;DHT22;28550;51.228;4.528;2022-11-18T21:39:43;10.50;99.90
42905;DHT22;28550;51.228;4.528;2022-11-18T21:42:16;10.60;99.90
42905;DHT22;28550;51.228;4.528;2022-11-18T21:45:22;10.60;99.90
42905;DHT22;28550;51.228;4.528;2022-11-18T21:47:59;10.70;99.90
42905;DHT22;28550;51.228;4.528;2022-11-18T21:50:35;10.50;99.90
42905;DHT22;28550;51.228;4.528;2022-11-18T21:53:12;10.50;99.90
42905;DHT22;28550;51.228;4.528;2022-11-18T21:56:01;10.40;99.90
42905;DHT22;28550;51.228;4.528;2022-11-18T21:58:33;10.50;99.90
42905;DHT22;28550;51.228;4.528;2022-11-18T22:01:09;10.50;99.90
42905;DHT22;28550;51.228;4.528;2022-11-18T22:03:58;10.50;99.90
42905;DHT22;28550;51.228;4.528;2022-11-18T22:06:53;10.50;99.90
42905;DHT22;28550;51.228;4.528;2022-11-18T22:09:55;10.50;99.90
42905;DHT22;28550;51.228;4.528;2022-11-18T22:12:38;10.50;99.90
42905;DHT22;28550;51.228;4.528;2022-11-18T22:15:12;10.40;99.90
42905;DHT22;28550;51.228;4.528;2022-11-18T22:18:01;10.50;99.90
42905;DHT22;28550;51.228;4.528;2022-11-18T22:20:57;10.40;99.90
42905;DHT22;28550;51.228;4.528;2022-11-18T22:23:35;10.50;99.90
42905;DHT22;28550;51.228;4.528;2022-11-18T22:26:20;10.50;99.90
42905;DHT22;28550;51.228;4.528;2022-11-18T22:29:10;10.50;99.90
42905;DHT22;28550;51.228;4.528;2022-11-18T22:31:39;10.50;99.90
42905;DHT22;28550;51.228;4.528;2022-11-18T22:34:13;10.50;99.90
42905;DHT22;28550;51.228;4.528;2022-11-18T22:36:50;10.50;99.90
42905;DHT22;28550;51.228;4.528;2022-11-18T22:39:27;10.60;99.90
42905;DHT22;28550;51.228;4.528;2022-11-18T22:42:30;10.50;99.90
42905;DHT22;28550;51.228;4.528;2022-11-18T22:45:19;10.50;99.90
42905;DHT22;28550;51.228;4.528;2022-11-18T22:48:09;10.50;99.90
42905;DHT22;28550;51.228;4.528;2022-11-18T22:50:55;10.50;99.90
42905;DHT22;28550;51.228;4.528;2022-11-18T22:53:22;10.50;99.90
42905;DHT22;28550;51.228;4.528;2022-11-18T22:58:35;10.50;99.90
42905;DHT22;28550;51.228;4.528;2022-11-18T23:03:53;10.50;99.90
42905;DHT22;28550;51.228;4.528;2022-11-18T23:06:27;10.60;99.90
42905;DHT22;28550;51.228;4.528;2022-11-18T23:09:14;10.50;99.90
42905;DHT22;28550;51.228;4.528;2022-11-18T23:12:31;10.60;99.90
42905;DHT22;28550;51.228;4.528;2022-11-18T23:19:03;10.70;99.90
42905;DHT22;28550;51.228;4.528;2022-11-18T23:45:10;10.70;99.90
42905;DHT22;28550;51.228;4.528;2022-11-18T23:47:49;10.60;99.90
42905;DHT22;28550;51.228;4.528;2022-11-18T23:50:15;10.60;99.90
42905;DHT22;28550;51.228;4.528;2022-11-18T23:52:43;10.60;99.90
42905;DHT22;28550;51.228;4.528;2022-11-18T23:55:40;10.70;99.90
42905;DHT22;28550;51.228;4.528;2022-11-18T23:58:20;10.60;99.90
